CPA165 VHHH-YBBN
Flight info
| Callsign | CPA165 |
|---|---|
| Flight time | N/A |
| Altitude | 39000 |
| Route | DALOL V642 NOMAN A461 AVMUP W16 MIA DCT LIGPA B472 TOREX/N0480F410 B472 NTN T13 EML Y409 BESBO Y177 SMOKA |
| Aircraft | A359/H-SABDE2E3GHIJ1J2J3J4J5LM1OP2RVWXYZ/LB1D1G1 |
Departure
| Time | 2026-05-05 16:34 |
|---|---|
| Airport | Hong Kong International Airport (VHHH) |
Arrival
| Time | N/A |
|---|---|
| Airport | Brisbane International Airport (YBBN) |
| Time | Latitude | Longitude | Altitude | Speed | Heading |
|---|---|---|---|---|---|
| 2026-05-05 16:14 | 22.31389 | 113.92406 | 41 ft | 0 kts | 26° |
| 2026-05-05 16:17 | 22.31374 | 113.92399 | 39 ft | 2 kts | 20° |
| 2026-05-05 16:17 | 22.31359 | 113.92393 | 39 ft | 2 kts | 14° |
| 2026-05-05 16:18 | 22.31326 | 113.92390 | 40 ft | 2 kts | 352° |
| 2026-05-05 16:18 | 22.31311 | 113.92394 | 39 ft | 2 kts | 334° |
| 2026-05-05 16:18 | 22.31287 | 113.92417 | 37 ft | 2 kts | 300° |
| 2026-05-05 16:19 | 22.31284 | 113.92423 | 40 ft | 0 kts | 296° |
| 2026-05-05 16:24 | 22.31312 | 113.92359 | 36 ft | 12 kts | 296° |
| 2026-05-05 16:25 | 22.31352 | 113.92270 | 41 ft | 14 kts | 296° |
| 2026-05-05 16:25 | 22.31359 | 113.92131 | 41 ft | 8 kts | 196° |
| 2026-05-05 16:25 | 22.31290 | 113.92144 | 41 ft | 14 kts | 161° |
| 2026-05-05 16:26 | 22.31075 | 113.92225 | 41 ft | 18 kts | 161° |
| 2026-05-05 16:26 | 22.30824 | 113.92320 | 41 ft | 20 kts | 161° |
| 2026-05-05 16:27 | 22.30695 | 113.92368 | 41 ft | 13 kts | 161° |
| 2026-05-05 16:27 | 22.30658 | 113.92379 | 41 ft | 2 kts | 177° |
| 2026-05-05 16:27 | 22.30628 | 113.92342 | 41 ft | 9 kts | 246° |
| 2026-05-05 16:27 | 22.30604 | 113.92270 | 41 ft | 11 kts | 251° |
| 2026-05-05 16:28 | 22.30575 | 113.92181 | 41 ft | 15 kts | 251° |
| 2026-05-05 16:28 | 22.30537 | 113.92061 | 41 ft | 18 kts | 251° |
| 2026-05-05 16:28 | 22.30496 | 113.91936 | 41 ft | 18 kts | 250° |
| 2026-05-05 16:28 | 22.30453 | 113.91804 | 41 ft | 19 kts | 251° |
| 2026-05-05 16:29 | 22.30423 | 113.91712 | 41 ft | 20 kts | 250° |
| 2026-05-05 16:29 | 22.30375 | 113.91566 | 41 ft | 21 kts | 250° |
| 2026-05-05 16:29 | 22.30308 | 113.91358 | 41 ft | 23 kts | 251° |
| 2026-05-05 16:29 | 22.30274 | 113.91251 | 41 ft | 23 kts | 251° |
| 2026-05-05 16:30 | 22.30221 | 113.91087 | 41 ft | 21 kts | 251° |
| 2026-05-05 16:30 | 22.30174 | 113.90940 | 41 ft | 21 kts | 251° |
| 2026-05-05 16:30 | 22.30124 | 113.90785 | 42 ft | 22 kts | 251° |
| 2026-05-05 16:30 | 22.30072 | 113.90623 | 42 ft | 23 kts | 251° |
| 2026-05-05 16:31 | 22.30018 | 113.90455 | 42 ft | 24 kts | 251° |
| 2026-05-05 16:31 | 22.29961 | 113.90283 | 42 ft | 25 kts | 251° |
| 2026-05-05 16:31 | 22.29907 | 113.90117 | 42 ft | 24 kts | 250° |
| 2026-05-05 16:31 | 22.29857 | 113.89958 | 42 ft | 21 kts | 251° |
| 2026-05-05 16:32 | 22.29821 | 113.89848 | 42 ft | 10 kts | 251° |
| 2026-05-05 16:32 | 22.29800 | 113.89789 | 42 ft | 7 kts | 243° |
| 2026-05-05 16:32 | 22.29761 | 113.89769 | 42 ft | 7 kts | 176° |
| 2026-05-05 16:32 | 22.29704 | 113.89784 | 42 ft | 11 kts | 160° |
| 2026-05-05 16:33 | 22.29642 | 113.89824 | 42 ft | 10 kts | 116° |
| 2026-05-05 16:33 | 22.29653 | 113.89890 | 42 ft | 9 kts | 71° |
| 2026-05-05 16:33 | 22.29674 | 113.89958 | 42 ft | 11 kts | 71° |
| 2026-05-05 16:33 | 22.29721 | 113.90105 | 42 ft | 47 kts | 71° |
| 2026-05-05 16:34 | 22.29897 | 113.90653 | 42 ft | 108 kts | 71° |
| 2026-05-05 16:34 | 22.30204 | 113.91606 | 42 ft | 159 kts | 71° |
| 2026-05-05 16:34 | 22.30575 | 113.92754 | 626 ft | 157 kts | 71° |
| 2026-05-05 16:34 | 22.30937 | 113.93907 | 1086 ft | 169 kts | 71° |
| 2026-05-05 16:35 | 22.31319 | 113.95114 | 1686 ft | 168 kts | 71° |
| 2026-05-05 16:35 | 22.31707 | 113.96307 | 2239 ft | 169 kts | 70° |
| 2026-05-05 16:35 | 22.32100 | 113.97512 | 2775 ft | 171 kts | 71° |
| 2026-05-05 16:35 | 22.32496 | 113.98736 | 3194 ft | 178 kts | 71° |
| 2026-05-05 16:36 | 22.32920 | 114.00061 | 3432 ft | 196 kts | 71° |
| 2026-05-05 16:36 | 22.33389 | 114.01513 | 3771 ft | 211 kts | 71° |
| 2026-05-05 16:36 | 22.33760 | 114.03043 | 4312 ft | 216 kts | 82° |
| 2026-05-05 16:36 | 22.33730 | 114.04665 | 4831 ft | 217 kts | 101° |
| 2026-05-05 16:37 | 22.33180 | 114.06194 | 5368 ft | 221 kts | 122° |
| 2026-05-05 16:37 | 22.32173 | 114.07441 | 6048 ft | 222 kts | 140° |
| 2026-05-05 16:37 | 22.30820 | 114.08337 | 6484 ft | 236 kts | 158° |
| 2026-05-05 16:37 | 22.29197 | 114.08760 | 7048 ft | 243 kts | 175° |
| 2026-05-05 16:38 | 22.27482 | 114.08795 | 7607 ft | 254 kts | 181° |
| 2026-05-05 16:38 | 22.25663 | 114.08752 | 8075 ft | 267 kts | 181° |
| 2026-05-05 16:38 | 22.23785 | 114.08710 | 8749 ft | 272 kts | 181° |
| 2026-05-05 16:38 | 22.21879 | 114.08678 | 9463 ft | 275 kts | 181° |
| 2026-05-05 16:39 | 22.19954 | 114.08653 | 10180 ft | 279 kts | 180° |
| 2026-05-05 16:39 | 22.17957 | 114.08810 | 10550 ft | 297 kts | 167° |
| 2026-05-05 16:39 | 22.16088 | 114.09712 | 10833 ft | 315 kts | 143° |
| 2026-05-05 16:39 | 22.14601 | 114.11590 | 11183 ft | 330 kts | 120° |
| 2026-05-05 16:40 | 22.13520 | 114.13818 | 11740 ft | 339 kts | 116° |
| 2026-05-05 16:40 | 22.12463 | 114.16113 | 12377 ft | 344 kts | 116° |
| 2026-05-05 16:40 | 22.11406 | 114.18390 | 13022 ft | 347 kts | 117° |
| 2026-05-05 16:40 | 22.10307 | 114.20731 | 13698 ft | 351 kts | 117° |
| 2026-05-05 16:41 | 22.09192 | 114.23091 | 14328 ft | 355 kts | 117° |
| 2026-05-05 16:41 | 22.07969 | 114.25412 | 14937 ft | 358 kts | 125° |
| 2026-05-05 16:41 | 22.06252 | 114.27365 | 15534 ft | 361 kts | 141° |
| 2026-05-05 16:41 | 22.04238 | 114.29009 | 16138 ft | 364 kts | 144° |
| 2026-05-05 16:42 | 22.02174 | 114.30616 | 16713 ft | 367 kts | 144° |
| 2026-05-05 16:42 | 22.00093 | 114.32238 | 17304 ft | 371 kts | 144° |
| 2026-05-05 16:42 | 21.98000 | 114.33877 | 17887 ft | 374 kts | 144° |
| 2026-05-05 16:42 | 21.95916 | 114.35513 | 18468 ft | 377 kts | 144° |
| 2026-05-05 16:43 | 21.93790 | 114.37193 | 19028 ft | 380 kts | 144° |
| 2026-05-05 16:43 | 21.91643 | 114.38881 | 19603 ft | 383 kts | 144° |
| 2026-05-05 16:43 | 21.89480 | 114.40580 | 20179 ft | 387 kts | 144° |
| 2026-05-05 16:43 | 21.87353 | 114.42380 | 20715 ft | 390 kts | 138° |
| 2026-05-05 16:44 | 21.85526 | 114.44545 | 21147 ft | 392 kts | 126° |
| 2026-05-05 16:44 | 21.84175 | 114.47100 | 21568 ft | 395 kts | 113° |
| 2026-05-05 16:44 | 21.83291 | 114.49908 | 22000 ft | 398 kts | 106° |
| 2026-05-05 16:44 | 21.82553 | 114.52792 | 22416 ft | 400 kts | 105° |
| 2026-05-05 16:45 | 21.81822 | 114.55694 | 22827 ft | 403 kts | 105° |
| 2026-05-05 16:45 | 21.81091 | 114.58569 | 23225 ft | 405 kts | 105° |
| 2026-05-05 16:45 | 21.80340 | 114.61504 | 23631 ft | 408 kts | 105° |
| 2026-05-05 16:45 | 21.79580 | 114.64452 | 24024 ft | 410 kts | 105° |
| 2026-05-05 16:46 | 21.78815 | 114.67417 | 24409 ft | 412 kts | 105° |
| 2026-05-05 16:46 | 21.78041 | 114.70405 | 24797 ft | 415 kts | 105° |
| 2026-05-05 16:46 | 21.77264 | 114.73401 | 25165 ft | 417 kts | 105° |
| 2026-05-05 16:46 | 21.76446 | 114.76411 | 25523 ft | 420 kts | 109° |
| 2026-05-05 16:47 | 21.75264 | 114.79288 | 25884 ft | 422 kts | 120° |
| 2026-05-05 16:47 | 21.73581 | 114.81881 | 26258 ft | 424 kts | 129° |
| 2026-05-05 16:47 | 21.71641 | 114.84282 | 26626 ft | 426 kts | 133° |
| 2026-05-05 16:47 | 21.69583 | 114.86586 | 26980 ft | 429 kts | 135° |
| 2026-05-05 16:48 | 21.67459 | 114.88855 | 27335 ft | 431 kts | 135° |
| 2026-05-05 16:48 | 21.65306 | 114.91120 | 27690 ft | 433 kts | 135° |
| 2026-05-05 16:48 | 21.63176 | 114.93366 | 28033 ft | 436 kts | 135° |
| 2026-05-05 16:48 | 21.61010 | 114.95668 | 28367 ft | 438 kts | 135° |
| 2026-05-05 16:49 | 21.58847 | 114.97985 | 28708 ft | 440 kts | 135° |
| 2026-05-05 16:49 | 21.56679 | 115.00320 | 29023 ft | 442 kts | 135° |
| 2026-05-05 16:49 | 21.54506 | 115.02668 | 29356 ft | 445 kts | 135° |
| 2026-05-05 16:49 | 21.52323 | 115.05030 | 29667 ft | 447 kts | 135° |
| 2026-05-05 16:50 | 21.50123 | 115.07410 | 29985 ft | 449 kts | 135° |
| 2026-05-05 16:50 | 21.47920 | 115.09792 | 30297 ft | 451 kts | 135° |
| 2026-05-05 16:50 | 21.45700 | 115.12189 | 30598 ft | 453 kts | 135° |
| 2026-05-05 16:50 | 21.43473 | 115.14593 | 30911 ft | 455 kts | 135° |
| 2026-05-05 16:51 | 21.41235 | 115.17008 | 31202 ft | 457 kts | 135° |
| 2026-05-05 16:51 | 21.38986 | 115.19431 | 31502 ft | 459 kts | 135° |
| 2026-05-05 16:51 | 21.36730 | 115.21863 | 31782 ft | 461 kts | 135° |
| 2026-05-05 16:51 | 21.34459 | 115.24308 | 32045 ft | 463 kts | 135° |
| 2026-05-05 16:52 | 21.32203 | 115.26737 | 32313 ft | 465 kts | 135° |
| 2026-05-05 16:52 | 21.29914 | 115.29200 | 32569 ft | 467 kts | 135° |
| 2026-05-05 16:52 | 21.27618 | 115.31668 | 32813 ft | 469 kts | 135° |
| 2026-05-05 16:52 | 21.25312 | 115.34147 | 33051 ft | 470 kts | 135° |
| 2026-05-05 16:53 | 21.22994 | 115.36638 | 33285 ft | 472 kts | 135° |
| 2026-05-05 16:53 | 21.20664 | 115.39140 | 33506 ft | 474 kts | 135° |
| 2026-05-05 16:53 | 21.18327 | 115.41649 | 33765 ft | 474 kts | 135° |
| 2026-05-05 16:53 | 21.16004 | 115.44142 | 34086 ft | 473 kts | 135° |
| 2026-05-05 16:54 | 21.13678 | 115.46636 | 34393 ft | 472 kts | 135° |
| 2026-05-05 16:54 | 21.11360 | 115.49120 | 34679 ft | 471 kts | 135° |
| 2026-05-05 16:54 | 21.09075 | 115.51568 | 34947 ft | 471 kts | 135° |
| 2026-05-05 16:54 | 21.06759 | 115.54049 | 35203 ft | 470 kts | 135° |
| 2026-05-05 16:55 | 21.04440 | 115.56531 | 35459 ft | 470 kts | 135° |
| 2026-05-05 16:55 | 21.02129 | 115.59003 | 35700 ft | 469 kts | 135° |
| 2026-05-05 16:55 | 20.99821 | 115.61473 | 35936 ft | 469 kts | 135° |
| 2026-05-05 16:55 | 20.97508 | 115.63944 | 36153 ft | 468 kts | 135° |
| 2026-05-05 16:56 | 20.95206 | 115.66404 | 36363 ft | 468 kts | 135° |
| 2026-05-05 16:56 | 20.92926 | 115.68839 | 36543 ft | 468 kts | 135° |
| 2026-05-05 16:56 | 20.90621 | 115.71299 | 36736 ft | 468 kts | 135° |
| 2026-05-05 16:56 | 20.88311 | 115.73765 | 36902 ft | 468 kts | 135° |
| 2026-05-05 16:57 | 20.83692 | 115.78690 | 37000 ft | 468 kts | 135° |
| 2026-05-05 16:57 | 20.79076 | 115.83606 | 37000 ft | 468 kts | 135° |
| 2026-05-05 16:58 | 20.74459 | 115.88520 | 37000 ft | 468 kts | 135° |
| 2026-05-05 16:58 | 20.69876 | 115.93393 | 37000 ft | 468 kts | 135° |
| 2026-05-05 16:59 | 20.65249 | 115.98308 | 37000 ft | 468 kts | 135° |
| 2026-05-05 16:59 | 20.60630 | 116.03211 | 37000 ft | 468 kts | 135° |
| 2026-05-05 17:00 | 20.56011 | 116.08110 | 37000 ft | 468 kts | 135° |
| 2026-05-05 17:00 | 20.51390 | 116.13005 | 37000 ft | 468 kts | 135° |
| 2026-05-05 17:01 | 20.46769 | 116.17897 | 37000 ft | 468 kts | 135° |
| 2026-05-05 17:01 | 20.42170 | 116.22761 | 37000 ft | 468 kts | 135° |
| 2026-05-05 17:02 | 20.37544 | 116.27649 | 37000 ft | 468 kts | 135° |
| 2026-05-05 17:02 | 20.32916 | 116.32534 | 37000 ft | 468 kts | 135° |
| 2026-05-05 17:03 | 20.28289 | 116.37414 | 37000 ft | 468 kts | 135° |
| 2026-05-05 17:03 | 20.23656 | 116.42297 | 37000 ft | 468 kts | 135° |
| 2026-05-05 17:04 | 20.19055 | 116.47141 | 37000 ft | 468 kts | 135° |
| 2026-05-05 17:04 | 20.14416 | 116.52021 | 37000 ft | 468 kts | 135° |
| 2026-05-05 17:05 | 20.09779 | 116.56895 | 37000 ft | 468 kts | 135° |
| 2026-05-05 17:05 | 20.05173 | 116.61731 | 37000 ft | 468 kts | 135° |
| 2026-05-05 17:06 | 20.00539 | 116.66594 | 37000 ft | 468 kts | 135° |
| 2026-05-05 17:06 | 19.96012 | 116.71569 | 37000 ft | 468 kts | 132° |
| 2026-05-05 17:07 | 19.91657 | 116.76725 | 37000 ft | 468 kts | 131° |
| 2026-05-05 17:07 | 19.87324 | 116.81846 | 37000 ft | 468 kts | 132° |
| 2026-05-05 17:08 | 19.82938 | 116.86958 | 37000 ft | 468 kts | 132° |
| 2026-05-05 17:08 | 19.78538 | 116.92051 | 37000 ft | 468 kts | 133° |
| 2026-05-05 17:09 | 19.74135 | 116.97139 | 37000 ft | 468 kts | 133° |
| 2026-05-05 17:09 | 19.69753 | 117.02200 | 37000 ft | 468 kts | 133° |
| 2026-05-05 17:10 | 19.65351 | 117.07282 | 37000 ft | 468 kts | 133° |
| 2026-05-05 17:10 | 19.60944 | 117.12366 | 37000 ft | 468 kts | 133° |
| 2026-05-05 17:11 | 19.56540 | 117.17442 | 37000 ft | 468 kts | 133° |
| 2026-05-05 17:11 | 19.52131 | 117.22519 | 37000 ft | 468 kts | 133° |
| 2026-05-05 17:12 | 19.47721 | 117.27593 | 37000 ft | 468 kts | 133° |
| 2026-05-05 17:12 | 19.43335 | 117.32634 | 37000 ft | 468 kts | 133° |
| 2026-05-05 17:13 | 19.38917 | 117.37709 | 37000 ft | 468 kts | 133° |
| 2026-05-05 17:13 | 19.34499 | 117.42779 | 37000 ft | 468 kts | 133° |
| 2026-05-05 17:14 | 19.30084 | 117.47841 | 37000 ft | 468 kts | 133° |
| 2026-05-05 17:14 | 19.25666 | 117.52902 | 37000 ft | 468 kts | 133° |
| 2026-05-05 17:15 | 19.21275 | 117.57929 | 37000 ft | 468 kts | 133° |
| 2026-05-05 17:15 | 19.16858 | 117.62980 | 37000 ft | 468 kts | 133° |
| 2026-05-05 17:16 | 19.12439 | 117.68030 | 37000 ft | 468 kts | 133° |
| 2026-05-05 17:16 | 19.08015 | 117.73081 | 37000 ft | 468 kts | 133° |
| 2026-05-05 17:17 | 19.03592 | 117.78127 | 37000 ft | 467 kts | 133° |
| 2026-05-05 17:17 | 18.99200 | 117.83140 | 37000 ft | 467 kts | 133° |
| 2026-05-05 17:18 | 18.94770 | 117.88182 | 37000 ft | 467 kts | 133° |
| 2026-05-05 17:18 | 18.90331 | 117.93228 | 37000 ft | 467 kts | 133° |
| 2026-05-05 17:19 | 18.85927 | 117.98233 | 37000 ft | 467 kts | 133° |
| 2026-05-05 17:19 | 18.81497 | 118.03266 | 37000 ft | 467 kts | 133° |
| 2026-05-05 17:20 | 18.77806 | 118.07456 | 37000 ft | 467 kts | 133° |
| 2026-05-05 17:20 | 18.73364 | 118.12494 | 37000 ft | 467 kts | 133° |
| 2026-05-05 17:21 | 18.68932 | 118.17516 | 37000 ft | 467 kts | 133° |
| 2026-05-05 17:22 | 18.62311 | 118.25013 | 37000 ft | 467 kts | 133° |
| 2026-05-05 17:22 | 18.57867 | 118.30038 | 37000 ft | 467 kts | 133° |
| 2026-05-05 17:23 | 18.53427 | 118.35055 | 37000 ft | 467 kts | 133° |
| 2026-05-05 17:23 | 18.48989 | 118.40067 | 37000 ft | 467 kts | 133° |
| 2026-05-05 17:24 | 18.44575 | 118.45046 | 37000 ft | 467 kts | 133° |
| 2026-05-05 17:24 | 18.40138 | 118.50048 | 37000 ft | 467 kts | 133° |
| 2026-05-05 17:25 | 18.35694 | 118.55054 | 37000 ft | 467 kts | 133° |
| 2026-05-05 17:25 | 18.31242 | 118.60064 | 37000 ft | 467 kts | 133° |
| 2026-05-05 17:26 | 18.26800 | 118.65060 | 37000 ft | 467 kts | 133° |
| 2026-05-05 17:26 | 18.22353 | 118.70056 | 37000 ft | 467 kts | 133° |
| 2026-05-05 17:27 | 18.17933 | 118.75019 | 37000 ft | 467 kts | 133° |
| 2026-05-05 17:27 | 18.13486 | 118.80007 | 37000 ft | 467 kts | 133° |
| 2026-05-05 17:28 | 18.09036 | 118.84996 | 37000 ft | 467 kts | 133° |
| 2026-05-05 17:28 | 18.04588 | 118.89978 | 37000 ft | 467 kts | 133° |
| 2026-05-05 17:29 | 18.00019 | 118.94843 | 37000 ft | 467 kts | 140° |
| 2026-05-05 17:29 | 17.94622 | 118.98626 | 37000 ft | 467 kts | 150° |
| 2026-05-05 17:30 | 17.88980 | 119.01947 | 37000 ft | 467 kts | 151° |
| 2026-05-05 17:30 | 17.83266 | 119.05214 | 37000 ft | 467 kts | 151° |
| 2026-05-05 17:31 | 17.77557 | 119.08492 | 37000 ft | 467 kts | 151° |
| 2026-05-05 17:31 | 17.71898 | 119.11761 | 37000 ft | 467 kts | 151° |
| 2026-05-05 17:32 | 17.66205 | 119.15056 | 37000 ft | 467 kts | 151° |
| 2026-05-05 17:32 | 17.60506 | 119.18352 | 37000 ft | 467 kts | 151° |
| 2026-05-05 17:33 | 17.54803 | 119.21647 | 37000 ft | 467 kts | 151° |
| 2026-05-05 17:33 | 17.49105 | 119.24935 | 37000 ft | 467 kts | 151° |
| 2026-05-05 17:34 | 17.43448 | 119.28198 | 37000 ft | 467 kts | 151° |
| 2026-05-05 17:34 | 17.37746 | 119.31485 | 37000 ft | 467 kts | 151° |
| 2026-05-05 17:35 | 17.32053 | 119.34764 | 37000 ft | 467 kts | 151° |
| 2026-05-05 17:35 | 17.26355 | 119.38043 | 37000 ft | 467 kts | 151° |
| 2026-05-05 17:36 | 17.20655 | 119.41322 | 37000 ft | 467 kts | 151° |
| 2026-05-05 17:36 | 17.14956 | 119.44597 | 37000 ft | 467 kts | 151° |
| 2026-05-05 17:37 | 17.09296 | 119.47848 | 37000 ft | 467 kts | 151° |
| 2026-05-05 17:37 | 17.03589 | 119.51124 | 37000 ft | 467 kts | 151° |
| 2026-05-05 17:38 | 16.97888 | 119.54393 | 37000 ft | 467 kts | 151° |
| 2026-05-05 17:38 | 16.92185 | 119.57662 | 37000 ft | 467 kts | 151° |
| 2026-05-05 17:39 | 16.86516 | 119.60909 | 37000 ft | 467 kts | 151° |
| 2026-05-05 17:39 | 16.80821 | 119.64168 | 37000 ft | 467 kts | 151° |
| 2026-05-05 17:40 | 16.75108 | 119.67436 | 37000 ft | 467 kts | 151° |
| 2026-05-05 17:40 | 16.69447 | 119.70671 | 37000 ft | 467 kts | 151° |
| 2026-05-05 17:41 | 16.63737 | 119.73933 | 37000 ft | 467 kts | 151° |
| 2026-05-05 17:41 | 16.58036 | 119.77187 | 37000 ft | 467 kts | 151° |
| 2026-05-05 17:42 | 16.52327 | 119.80443 | 37000 ft | 467 kts | 151° |
| 2026-05-05 17:42 | 16.46626 | 119.83692 | 37000 ft | 467 kts | 151° |
| 2026-05-05 17:43 | 16.40960 | 119.86920 | 37000 ft | 467 kts | 151° |
| 2026-05-05 17:43 | 16.35247 | 119.90172 | 37000 ft | 467 kts | 151° |
| 2026-05-05 17:44 | 16.29561 | 119.93407 | 37000 ft | 467 kts | 151° |
| 2026-05-05 17:44 | 16.23856 | 119.96650 | 37000 ft | 467 kts | 151° |
| 2026-05-05 17:45 | 16.18147 | 119.99893 | 37000 ft | 467 kts | 151° |
| 2026-05-05 17:45 | 16.12449 | 120.03128 | 37000 ft | 467 kts | 151° |
| 2026-05-05 17:46 | 16.06737 | 120.06369 | 37000 ft | 467 kts | 151° |
| 2026-05-05 17:46 | 16.01025 | 120.09607 | 37000 ft | 468 kts | 151° |
| 2026-05-05 17:47 | 15.95320 | 120.12839 | 37001 ft | 470 kts | 151° |
| 2026-05-05 17:47 | 15.89573 | 120.16094 | 36999 ft | 469 kts | 151° |
| 2026-05-05 17:48 | 15.83845 | 120.19335 | 37000 ft | 468 kts | 151° |
| 2026-05-05 17:48 | 15.78144 | 120.22559 | 37000 ft | 469 kts | 151° |
| 2026-05-05 17:49 | 15.72410 | 120.25799 | 37000 ft | 468 kts | 151° |
| 2026-05-05 17:49 | 15.66679 | 120.29037 | 37000 ft | 469 kts | 151° |
| 2026-05-05 17:50 | 15.60934 | 120.32281 | 36999 ft | 469 kts | 151° |
| 2026-05-05 17:50 | 15.55200 | 120.35513 | 37000 ft | 468 kts | 151° |
| 2026-05-05 17:51 | 15.49478 | 120.38740 | 37000 ft | 468 kts | 151° |
| 2026-05-05 17:51 | 15.43758 | 120.41964 | 37000 ft | 468 kts | 151° |
| 2026-05-05 17:52 | 15.38043 | 120.45190 | 37000 ft | 468 kts | 151° |
| 2026-05-05 17:52 | 15.32313 | 120.48411 | 37000 ft | 468 kts | 152° |
| 2026-05-05 17:53 | 15.26630 | 120.51599 | 37000 ft | 468 kts | 152° |
| 2026-05-05 17:53 | 15.20905 | 120.54813 | 37000 ft | 468 kts | 151° |
| 2026-05-05 17:54 | 15.15232 | 120.58147 | 37001 ft | 467 kts | 147° |
| 2026-05-05 17:54 | 15.09832 | 120.61892 | 37000 ft | 467 kts | 145° |
| 2026-05-05 17:55 | 15.04468 | 120.65689 | 37000 ft | 467 kts | 146° |
| 2026-05-05 17:55 | 14.99071 | 120.69421 | 37000 ft | 467 kts | 146° |
| 2026-05-05 17:56 | 14.93655 | 120.73115 | 37000 ft | 466 kts | 146° |
| 2026-05-05 17:56 | 14.88231 | 120.76801 | 37000 ft | 466 kts | 147° |
| 2026-05-05 17:57 | 14.82802 | 120.80479 | 37000 ft | 466 kts | 147° |
| 2026-05-05 17:57 | 14.77376 | 120.84157 | 37000 ft | 466 kts | 147° |
| 2026-05-05 17:58 | 14.71951 | 120.87837 | 37000 ft | 466 kts | 147° |
| 2026-05-05 17:58 | 14.66562 | 120.91489 | 37000 ft | 466 kts | 147° |
| 2026-05-05 17:59 | 14.61140 | 120.95163 | 37000 ft | 466 kts | 147° |
| 2026-05-05 17:59 | 14.55714 | 120.98838 | 37000 ft | 466 kts | 147° |
| 2026-05-05 18:00 | 14.49989 | 121.01961 | 36999 ft | 466 kts | 160° |
| 2026-05-05 18:00 | 14.43677 | 121.03632 | 37158 ft | 470 kts | 168° |
| 2026-05-05 18:00 | 14.40469 | 121.04262 | 37350 ft | 470 kts | 169° |
| 2026-05-05 18:01 | 14.37244 | 121.04851 | 37532 ft | 470 kts | 170° |
| 2026-05-05 18:01 | 14.34018 | 121.05429 | 37705 ft | 470 kts | 170° |
| 2026-05-05 18:01 | 14.30797 | 121.06012 | 37875 ft | 470 kts | 170° |
| 2026-05-05 18:01 | 14.27582 | 121.06603 | 38032 ft | 470 kts | 169° |
| 2026-05-05 18:02 | 14.24363 | 121.07205 | 38185 ft | 470 kts | 169° |
| 2026-05-05 18:02 | 14.21150 | 121.07812 | 38326 ft | 470 kts | 169° |
| 2026-05-05 18:02 | 14.17928 | 121.08424 | 38468 ft | 470 kts | 169° |
| 2026-05-05 18:02 | 14.14743 | 121.09031 | 38595 ft | 471 kts | 169° |
| 2026-05-05 18:03 | 14.11512 | 121.09647 | 38725 ft | 471 kts | 169° |
| 2026-05-05 18:03 | 14.08286 | 121.10261 | 38865 ft | 471 kts | 169° |
| 2026-05-05 18:03 | 14.05061 | 121.10875 | 38975 ft | 471 kts | 169° |
| 2026-05-05 18:04 | 13.98586 | 121.12108 | 39004 ft | 473 kts | 169° |
| 2026-05-05 18:04 | 13.93349 | 121.13735 | 39005 ft | 474 kts | 159° |
| 2026-05-05 18:05 | 13.86223 | 121.16777 | 39001 ft | 474 kts | 156° |
| 2026-05-05 18:05 | 13.80219 | 121.19466 | 39001 ft | 473 kts | 156° |
| 2026-05-05 18:06 | 13.75194 | 121.21716 | 39002 ft | 473 kts | 156° |
| 2026-05-05 18:06 | 13.69151 | 121.24416 | 39002 ft | 473 kts | 156° |
| 2026-05-05 18:07 | 13.63098 | 121.27095 | 38998 ft | 474 kts | 156° |
| 2026-05-05 18:07 | 13.57035 | 121.29776 | 39006 ft | 473 kts | 156° |
| 2026-05-05 18:08 | 13.50990 | 121.32451 | 38997 ft | 472 kts | 156° |
| 2026-05-05 18:08 | 13.44987 | 121.35102 | 38996 ft | 472 kts | 156° |
| 2026-05-05 18:09 | 13.38953 | 121.37764 | 39003 ft | 472 kts | 156° |
| 2026-05-05 18:09 | 13.32910 | 121.40430 | 39003 ft | 472 kts | 156° |
| 2026-05-05 18:10 | 13.26874 | 121.43091 | 39000 ft | 472 kts | 156° |
| 2026-05-05 18:10 | 13.20836 | 121.45753 | 39001 ft | 472 kts | 156° |
| 2026-05-05 18:11 | 13.14827 | 121.48400 | 39001 ft | 472 kts | 156° |
| 2026-05-05 18:11 | 13.08786 | 121.51060 | 38995 ft | 473 kts | 156° |
| 2026-05-05 18:12 | 13.02727 | 121.53727 | 38998 ft | 473 kts | 156° |
| 2026-05-05 18:12 | 12.96686 | 121.56384 | 38996 ft | 472 kts | 156° |
| 2026-05-05 18:13 | 12.90638 | 121.59043 | 38998 ft | 472 kts | 156° |
| 2026-05-05 18:13 | 12.84638 | 121.61679 | 39003 ft | 472 kts | 156° |
| 2026-05-05 18:14 | 12.78588 | 121.64336 | 38996 ft | 472 kts | 156° |
| 2026-05-05 18:14 | 12.72553 | 121.66985 | 38999 ft | 472 kts | 156° |
| 2026-05-05 18:15 | 12.66545 | 121.69621 | 39003 ft | 472 kts | 156° |
| 2026-05-05 18:15 | 12.60507 | 121.72268 | 38999 ft | 472 kts | 157° |
| 2026-05-05 18:16 | 12.54462 | 121.74917 | 38996 ft | 472 kts | 157° |
| 2026-05-05 18:16 | 12.48410 | 121.77568 | 38998 ft | 472 kts | 157° |
| 2026-05-05 18:17 | 12.42366 | 121.80214 | 38996 ft | 472 kts | 157° |
| 2026-05-05 18:17 | 12.36364 | 121.82842 | 38997 ft | 472 kts | 157° |
| 2026-05-05 18:18 | 12.30316 | 121.85488 | 39004 ft | 472 kts | 157° |
| 2026-05-05 18:18 | 12.24272 | 121.88123 | 38996 ft | 472 kts | 157° |
| 2026-05-05 18:19 | 12.18229 | 121.90758 | 39000 ft | 472 kts | 157° |
| 2026-05-05 18:19 | 12.12227 | 121.93376 | 39001 ft | 472 kts | 157° |
| 2026-05-05 18:20 | 12.06190 | 121.96008 | 38997 ft | 472 kts | 157° |
| 2026-05-05 18:20 | 12.00148 | 121.98641 | 39001 ft | 472 kts | 157° |
| 2026-05-05 18:21 | 11.94100 | 122.01275 | 39000 ft | 472 kts | 157° |
| 2026-05-05 18:21 | 11.88058 | 122.03906 | 39002 ft | 472 kts | 157° |
| 2026-05-05 18:22 | 11.82011 | 122.06537 | 38995 ft | 472 kts | 157° |
| 2026-05-05 18:22 | 11.75956 | 122.09170 | 39001 ft | 473 kts | 157° |
| 2026-05-05 18:23 | 11.69940 | 122.11785 | 39002 ft | 472 kts | 157° |
| 2026-05-05 18:23 | 11.63884 | 122.14417 | 38996 ft | 475 kts | 157° |
| 2026-05-05 18:24 | 11.57791 | 122.17063 | 38997 ft | 476 kts | 157° |
| 2026-05-05 18:24 | 11.51686 | 122.19713 | 38996 ft | 477 kts | 157° |
| 2026-05-05 18:25 | 11.45580 | 122.22363 | 38998 ft | 476 kts | 157° |
| 2026-05-05 18:25 | 11.39485 | 122.25006 | 39003 ft | 475 kts | 157° |
| 2026-05-05 18:26 | 11.33409 | 122.27639 | 39006 ft | 474 kts | 157° |
| 2026-05-05 18:26 | 11.27356 | 122.30262 | 39008 ft | 477 kts | 157° |
| 2026-05-05 18:27 | 11.21247 | 122.32908 | 39002 ft | 477 kts | 157° |
| 2026-05-05 18:27 | 11.15137 | 122.35555 | 39002 ft | 476 kts | 157° |
| 2026-05-05 18:28 | 11.06003 | 122.39505 | 39005 ft | 475 kts | 157° |
| 2026-05-05 18:28 | 10.99913 | 122.42134 | 38996 ft | 474 kts | 157° |
| 2026-05-05 18:29 | 10.93885 | 122.44737 | 39002 ft | 473 kts | 157° |
| 2026-05-05 18:29 | 10.87826 | 122.47353 | 39003 ft | 473 kts | 157° |
| 2026-05-05 18:30 | 10.81769 | 122.49981 | 38998 ft | 472 kts | 156° |
| 2026-05-05 18:30 | 10.75798 | 122.52783 | 38995 ft | 472 kts | 154° |
| 2026-05-05 18:31 | 10.69863 | 122.55645 | 39007 ft | 472 kts | 154° |
| 2026-05-05 18:31 | 10.63911 | 122.58490 | 38997 ft | 472 kts | 155° |
| 2026-05-05 18:32 | 10.57954 | 122.61313 | 39000 ft | 473 kts | 155° |
| 2026-05-05 18:32 | 10.52025 | 122.64114 | 38997 ft | 473 kts | 155° |
| 2026-05-05 18:33 | 10.46040 | 122.66939 | 39002 ft | 472 kts | 155° |
| 2026-05-05 18:33 | 10.40070 | 122.69758 | 39002 ft | 472 kts | 155° |
| 2026-05-05 18:34 | 10.34153 | 122.72562 | 38999 ft | 472 kts | 155° |
| 2026-05-05 18:34 | 10.28191 | 122.75372 | 39003 ft | 472 kts | 155° |
| 2026-05-05 18:35 | 10.22231 | 122.78176 | 38999 ft | 472 kts | 155° |
| 2026-05-05 18:35 | 10.16272 | 122.80985 | 38995 ft | 472 kts | 155° |
| 2026-05-05 18:36 | 10.10314 | 122.83798 | 38997 ft | 472 kts | 155° |
| 2026-05-05 18:36 | 10.04347 | 122.86604 | 38995 ft | 472 kts | 155° |
| 2026-05-05 18:37 | 9.98424 | 122.89390 | 39007 ft | 473 kts | 155° |
| 2026-05-05 18:37 | 9.92453 | 122.92199 | 38995 ft | 473 kts | 155° |
| 2026-05-05 18:38 | 9.86455 | 122.95021 | 39004 ft | 476 kts | 155° |
| 2026-05-05 18:38 | 9.80431 | 122.97854 | 38996 ft | 477 kts | 155° |
| 2026-05-05 18:39 | 9.74418 | 123.00685 | 39010 ft | 476 kts | 155° |
| 2026-05-05 18:39 | 9.68401 | 123.03511 | 39002 ft | 475 kts | 155° |
| 2026-05-05 18:40 | 9.62429 | 123.06315 | 39002 ft | 476 kts | 155° |
| 2026-05-05 18:40 | 9.56430 | 123.09131 | 39001 ft | 473 kts | 155° |
| 2026-05-05 18:41 | 9.50462 | 123.11933 | 38999 ft | 472 kts | 155° |
| 2026-05-05 18:41 | 9.44523 | 123.14720 | 39001 ft | 472 kts | 155° |
| 2026-05-05 18:42 | 9.38548 | 123.17523 | 39006 ft | 474 kts | 155° |
| 2026-05-05 18:42 | 9.32539 | 123.20341 | 39003 ft | 478 kts | 155° |
| 2026-05-05 18:43 | 9.26514 | 123.23164 | 38995 ft | 476 kts | 155° |
| 2026-05-05 18:43 | 9.20507 | 123.25979 | 38998 ft | 474 kts | 155° |
| 2026-05-05 18:44 | 9.14526 | 123.28781 | 39004 ft | 472 kts | 155° |
| 2026-05-05 18:44 | 9.08561 | 123.31573 | 39006 ft | 472 kts | 155° |
| 2026-05-05 18:45 | 9.02637 | 123.34346 | 38997 ft | 472 kts | 155° |
| 2026-05-05 18:45 | 8.96669 | 123.37140 | 39006 ft | 472 kts | 155° |
| 2026-05-05 18:46 | 8.90703 | 123.39932 | 38998 ft | 472 kts | 155° |
| 2026-05-05 18:46 | 8.84747 | 123.42718 | 39003 ft | 472 kts | 155° |
| 2026-05-05 18:47 | 8.78810 | 123.45493 | 38997 ft | 472 kts | 155° |
| 2026-05-05 18:47 | 8.72842 | 123.48283 | 38996 ft | 472 kts | 155° |
| 2026-05-05 18:48 | 8.66876 | 123.51070 | 39000 ft | 472 kts | 155° |
| 2026-05-05 18:48 | 8.60908 | 123.53857 | 38998 ft | 472 kts | 155° |
| 2026-05-05 18:49 | 8.54973 | 123.56628 | 39003 ft | 473 kts | 155° |
| 2026-05-05 18:49 | 8.48998 | 123.59417 | 39003 ft | 473 kts | 155° |
| 2026-05-05 18:50 | 8.43015 | 123.62208 | 38998 ft | 475 kts | 155° |
| 2026-05-05 18:50 | 8.36998 | 123.65014 | 38998 ft | 477 kts | 155° |
| 2026-05-05 18:51 | 8.30984 | 123.67818 | 38996 ft | 481 kts | 155° |
| 2026-05-05 18:51 | 8.24898 | 123.70655 | 38997 ft | 480 kts | 155° |
| 2026-05-05 18:52 | 8.18858 | 123.73469 | 39002 ft | 476 kts | 155° |
| 2026-05-05 18:52 | 8.12853 | 123.76266 | 38997 ft | 474 kts | 155° |
| 2026-05-05 18:53 | 8.06870 | 123.79052 | 38996 ft | 473 kts | 155° |
| 2026-05-05 18:53 | 8.01908 | 123.81362 | 39002 ft | 472 kts | 155° |
| 2026-05-05 18:54 | 7.95937 | 123.84140 | 38998 ft | 472 kts | 155° |
| 2026-05-05 18:54 | 7.88979 | 123.87377 | 39011 ft | 473 kts | 155° |
| 2026-05-05 18:55 | 7.84010 | 123.89688 | 38995 ft | 473 kts | 155° |
| 2026-05-05 18:55 | 7.78010 | 123.92477 | 38999 ft | 477 kts | 155° |
| 2026-05-05 18:56 | 7.71976 | 123.95281 | 38996 ft | 475 kts | 155° |
| 2026-05-05 18:56 | 7.66013 | 123.98052 | 39004 ft | 473 kts | 155° |
| 2026-05-05 18:57 | 7.60040 | 124.00826 | 38999 ft | 472 kts | 155° |
| 2026-05-05 18:57 | 7.54073 | 124.03596 | 38999 ft | 472 kts | 155° |
| 2026-05-05 18:58 | 7.48109 | 124.06364 | 38996 ft | 472 kts | 155° |
| 2026-05-05 18:58 | 7.42141 | 124.09134 | 39003 ft | 472 kts | 155° |
| 2026-05-05 18:59 | 7.36170 | 124.11904 | 39004 ft | 472 kts | 155° |
| 2026-05-05 18:59 | 7.30240 | 124.14654 | 38998 ft | 472 kts | 155° |
| 2026-05-05 19:00 | 7.24269 | 124.17422 | 39005 ft | 472 kts | 155° |
| 2026-05-05 19:00 | 7.18304 | 124.20203 | 38994 ft | 472 kts | 153° |
| 2026-05-05 19:01 | 7.12652 | 124.23568 | 38998 ft | 473 kts | 148° |
| 2026-05-05 19:01 | 7.07139 | 124.27137 | 38999 ft | 474 kts | 147° |